sensor_id;sensor_type;location;lat;lon;timestamp;P1;durP1;ratioP1;P2;durP2;ratioP2
17586;SDS011;8912;52.336;17.172;2022-07-29T00:00:04;10.90;;;3.50;;
17586;SDS011;8912;52.336;17.172;2022-07-29T00:02:34;8.43;;;3.60;;
17586;SDS011;8912;52.336;17.172;2022-07-29T00:05:03;7.90;;;3.43;;
17586;SDS011;8912;52.336;17.172;2022-07-29T00:07:33;8.90;;;3.60;;
17586;SDS011;8912;52.336;17.172;2022-07-29T00:10:02;9.30;;;3.70;;
17586;SDS011;8912;52.336;17.172;2022-07-29T00:12:32;8.93;;;3.70;;
17586;SDS011;8912;52.336;17.172;2022-07-29T00:15:00;8.17;;;4.33;;
17586;SDS011;8912;52.336;17.172;2022-07-29T00:17:29;6.87;;;4.00;;
17586;SDS011;8912;52.336;17.172;2022-07-29T00:19:58;6.67;;;3.90;;
17586;SDS011;8912;52.336;17.172;2022-07-29T00:22:27;7.87;;;3.90;;
17586;SDS011;8912;52.336;17.172;2022-07-29T00:24:57;6.07;;;3.97;;
17586;SDS011;8912;52.336;17.172;2022-07-29T00:27:25;8.07;;;4.70;;
17586;SDS011;8912;52.336;17.172;2022-07-29T00:29:54;10.93;;;4.30;;
17586;SDS011;8912;52.336;17.172;2022-07-29T00:32:22;7.37;;;3.93;;
17586;SDS011;8912;52.336;17.172;2022-07-29T00:34:51;7.83;;;4.20;;
17586;SDS011;8912;52.336;17.172;2022-07-29T00:37:37;11.23;;;4.47;;
17586;SDS011;8912;52.336;17.172;2022-07-29T00:40:08;9.13;;;4.60;;
17586;SDS011;8912;52.336;17.172;2022-07-29T00:42:43;6.13;;;4.10;;
17586;SDS011;8912;52.336;17.172;2022-07-29T00:45:12;8.97;;;4.43;;
17586;SDS011;8912;52.336;17.172;2022-07-29T00:47:41;10.20;;;4.10;;
17586;SDS011;8912;52.336;17.172;2022-07-29T00:50:10;6.83;;;4.20;;
17586;SDS011;8912;52.336;17.172;2022-07-29T00:52:40;11.00;;;4.63;;
17586;SDS011;8912;52.336;17.172;2022-07-29T00:55:12;9.57;;;4.37;;
17586;SDS011;8912;52.336;17.172;2022-07-29T00:57:44;8.20;;;4.43;;
17586;SDS011;8912;52.336;17.172;2022-07-29T01:00:14;13.80;;;4.00;;
17586;SDS011;8912;52.336;17.172;2022-07-29T01:02:45;9.70;;;4.37;;
17586;SDS011;8912;52.336;17.172;2022-07-29T01:05:16;6.97;;;4.00;;
17586;SDS011;8912;52.336;17.172;2022-07-29T01:07:46;8.47;;;3.83;;
17586;SDS011;8912;52.336;17.172;2022-07-29T01:10:19;9.43;;;4.23;;
17586;SDS011;8912;52.336;17.172;2022-07-29T01:12:49;7.70;;;4.23;;
17586;SDS011;8912;52.336;17.172;2022-07-29T01:15:20;12.57;;;4.67;;
17586;SDS011;8912;52.336;17.172;2022-07-29T01:17:51;9.10;;;4.40;;
17586;SDS011;8912;52.336;17.172;2022-07-29T01:20:26;8.50;;;4.33;;
17586;SDS011;8912;52.336;17.172;2022-07-29T01:23:11;7.93;;;4.63;;
17586;SDS011;8912;52.336;17.172;2022-07-29T01:26:07;12.47;;;4.37;;
17586;SDS011;8912;52.336;17.172;2022-07-29T01:29:15;8.37;;;4.63;;
17586;SDS011;8912;52.336;17.172;2022-07-29T01:31:51;11.57;;;4.57;;
17586;SDS011;8912;52.336;17.172;2022-07-29T01:34:29;7.63;;;5.17;;
17586;SDS011;8912;52.336;17.172;2022-07-29T01:37:07;8.30;;;4.80;;
17586;SDS011;8912;52.336;17.172;2022-07-29T01:39:43;9.57;;;4.97;;
17586;SDS011;8912;52.336;17.172;2022-07-29T01:42:15;7.40;;;4.80;;
17586;SDS011;8912;52.336;17.172;2022-07-29T01:44:54;15.47;;;5.10;;
17586;SDS011;8912;52.336;17.172;2022-07-29T01:47:25;11.27;;;5.23;;
17586;SDS011;8912;52.336;17.172;2022-07-29T01:50:01;14.47;;;4.60;;
17586;SDS011;8912;52.336;17.172;2022-07-29T01:52:37;11.53;;;4.63;;
17586;SDS011;8912;52.336;17.172;2022-07-29T01:55:11;10.87;;;5.03;;
17586;SDS011;8912;52.336;17.172;2022-07-29T01:57:46;10.33;;;4.83;;
17586;SDS011;8912;52.336;17.172;2022-07-29T02:00:18;10.33;;;5.07;;
17586;SDS011;8912;52.336;17.172;2022-07-29T02:02:48;9.63;;;4.83;;
17586;SDS011;8912;52.336;17.172;2022-07-29T02:05:19;6.83;;;4.93;;
17586;SDS011;8912;52.336;17.172;2022-07-29T02:07:50;6.30;;;5.37;;
17586;SDS011;8912;52.336;17.172;2022-07-29T02:10:21;13.40;;;5.20;;
17586;SDS011;8912;52.336;17.172;2022-07-29T02:12:54;10.20;;;5.03;;
17586;SDS011;8912;52.336;17.172;2022-07-29T02:15:26;11.83;;;5.17;;
17586;SDS011;8912;52.336;17.172;2022-07-29T02:18:00;11.27;;;5.27;;
17586;SDS011;8912;52.336;17.172;2022-07-29T02:20:32;8.20;;;5.13;;
17586;SDS011;8912;52.336;17.172;2022-07-29T02:23:02;9.27;;;5.17;;
17586;SDS011;8912;52.336;17.172;2022-07-29T02:25:32;7.73;;;4.77;;
17586;SDS011;8912;52.336;17.172;2022-07-29T02:28:04;5.27;;;4.77;;
17586;SDS011;8912;52.336;17.172;2022-07-29T02:30:39;8.73;;;4.77;;
17586;SDS011;8912;52.336;17.172;2022-07-29T02:33:10;9.53;;;5.03;;
17586;SDS011;8912;52.336;17.172;2022-07-29T02:35:45;8.33;;;4.90;;
17586;SDS011;8912;52.336;17.172;2022-07-29T02:38:15;9.77;;;4.90;;
17586;SDS011;8912;52.336;17.172;2022-07-29T02:41:03;6.77;;;5.20;;
17586;SDS011;8912;52.336;17.172;2022-07-29T02:43:35;7.07;;;5.33;;
17586;SDS011;8912;52.336;17.172;2022-07-29T02:46:08;12.83;;;5.10;;
17586;SDS011;8912;52.336;17.172;2022-07-29T02:48:56;15.17;;;5.07;;
17586;SDS011;8912;52.336;17.172;2022-07-29T02:51:28;9.37;;;4.73;;
17586;SDS011;8912;52.336;17.172;2022-07-29T02:54:10;13.17;;;5.70;;
17586;SDS011;8912;52.336;17.172;2022-07-29T02:56:47;11.93;;;5.77;;
17586;SDS011;8912;52.336;17.172;2022-07-29T02:59:20;6.77;;;5.03;;
17586;SDS011;8912;52.336;17.172;2022-07-29T03:01:55;6.70;;;5.37;;
17586;SDS011;8912;52.336;17.172;2022-07-29T03:04:27;9.07;;;5.00;;
17586;SDS011;8912;52.336;17.172;2022-07-29T03:06:59;7.43;;;4.20;;
17586;SDS011;8912;52.336;17.172;2022-07-29T03:09:29;11.80;;;4.57;;
17586;SDS011;8912;52.336;17.172;2022-07-29T03:11:58;6.23;;;5.00;;
17586;SDS011;8912;52.336;17.172;2022-07-29T03:14:28;7.47;;;4.60;;
17586;SDS011;8912;52.336;17.172;2022-07-29T03:17:01;11.80;;;4.87;;
17586;SDS011;8912;52.336;17.172;2022-07-29T03:19:31;9.57;;;4.77;;
17586;SDS011;8912;52.336;17.172;2022-07-29T03:22:01;5.40;;;4.20;;
17586;SDS011;8912;52.336;17.172;2022-07-29T03:24:30;9.47;;;4.60;;
17586;SDS011;8912;52.336;17.172;2022-07-29T03:27:00;9.50;;;4.57;;
17586;SDS011;8912;52.336;17.172;2022-07-29T03:29:30;7.87;;;4.90;;
17586;SDS011;8912;52.336;17.172;2022-07-29T03:32:03;7.23;;;4.57;;
17586;SDS011;8912;52.336;17.172;2022-07-29T03:34:35;5.97;;;3.80;;
17586;SDS011;8912;52.336;17.172;2022-07-29T03:37:05;9.33;;;4.63;;
17586;SDS011;8912;52.336;17.172;2022-07-29T03:39:36;7.43;;;4.23;;
17586;SDS011;8912;52.336;17.172;2022-07-29T03:42:10;5.60;;;4.10;;
17586;SDS011;8912;52.336;17.172;2022-07-29T03:44:43;6.60;;;3.77;;
17586;SDS011;8912;52.336;17.172;2022-07-29T03:47:17;4.33;;;3.40;;
17586;SDS011;8912;52.336;17.172;2022-07-29T03:50:11;10.00;;;3.60;;
17586;SDS011;8912;52.336;17.172;2022-07-29T03:52:42;5.57;;;3.57;;
17586;SDS011;8912;52.336;17.172;2022-07-29T03:55:12;8.00;;;3.83;;
17586;SDS011;8912;52.336;17.172;2022-07-29T03:57:41;5.20;;;3.43;;
17586;SDS011;8912;52.336;17.172;2022-07-29T04:00:12;7.07;;;3.17;;
17586;SDS011;8912;52.336;17.172;2022-07-29T04:02:45;6.90;;;3.50;;
17586;SDS011;8912;52.336;17.172;2022-07-29T04:05:16;6.33;;;3.27;;
17586;SDS011;8912;52.336;17.172;2022-07-29T04:07:45;7.13;;;3.60;;
17586;SDS011;8912;52.336;17.172;2022-07-29T04:10:15;11.35;;;3.35;;
17586;SDS011;8912;52.336;17.172;2022-07-29T04:12:58;6.40;;;3.03;;
17586;SDS011;8912;52.336;17.172;2022-07-29T04:15:27;5.70;;;2.95;;
17586;SDS011;8912;52.336;17.172;2022-07-29T04:17:59;6.55;;;3.08;;
17586;SDS011;8912;52.336;17.172;2022-07-29T04:20:27;4.63;;;2.90;;
17586;SDS011;8912;52.336;17.172;2022-07-29T04:22:56;4.50;;;2.63;;
17586;SDS011;8912;52.336;17.172;2022-07-29T04:25:25;3.95;;;2.60;;
17586;SDS011;8912;52.336;17.172;2022-07-29T04:27:53;5.63;;;2.80;;
17586;SDS011;8912;52.336;17.172;2022-07-29T04:30:28;4.70;;;2.90;;
17586;SDS011;8912;52.336;17.172;2022-07-29T04:32:58;4.50;;;2.50;;
17586;SDS011;8912;52.336;17.172;2022-07-29T04:35:28;6.20;;;2.67;;
17586;SDS011;8912;52.336;17.172;2022-07-29T04:38:05;5.10;;;2.35;;
17586;SDS011;8912;52.336;17.172;2022-07-29T04:40:42;5.88;;;2.55;;
17586;SDS011;8912;52.336;17.172;2022-07-29T04:43:13;4.25;;;2.50;;
17586;SDS011;8912;52.336;17.172;2022-07-29T04:45:48;7.13;;;2.95;;
17586;SDS011;8912;52.336;17.172;2022-07-29T04:48:18;4.35;;;2.58;;
17586;SDS011;8912;52.336;17.172;2022-07-29T04:50:54;5.50;;;2.60;;
17586;SDS011;8912;52.336;17.172;2022-07-29T04:53:24;4.72;;;2.40;;
17586;SDS011;8912;52.336;17.172;2022-07-29T04:55:53;7.13;;;2.70;;
17586;SDS011;8912;52.336;17.172;2022-07-29T04:58:22;2.70;;;2.28;;
17586;SDS011;8912;52.336;17.172;2022-07-29T05:00:51;3.30;;;2.20;;
17586;SDS011;8912;52.336;17.172;2022-07-29T05:03:21;3.97;;;2.47;;
17586;SDS011;8912;52.336;17.172;2022-07-29T05:05:50;5.18;;;2.33;;
17586;SDS011;8912;52.336;17.172;2022-07-29T05:08:20;5.75;;;2.60;;
17586;SDS011;8912;52.336;17.172;2022-07-29T05:10:48;6.05;;;2.38;;
17586;SDS011;8912;52.336;17.172;2022-07-29T05:13:17;2.97;;;2.25;;
17586;SDS011;8912;52.336;17.172;2022-07-29T05:15:46;3.40;;;2.47;;
17586;SDS011;8912;52.336;17.172;2022-07-29T05:18:15;5.68;;;2.40;;
17586;SDS011;8912;52.336;17.172;2022-07-29T05:20:46;2.42;;;2.15;;
17586;SDS011;8912;52.336;17.172;2022-07-29T05:23:15;6.00;;;2.42;;
17586;SDS011;8912;52.336;17.172;2022-07-29T05:25:44;6.13;;;2.22;;
17586;SDS011;8912;52.336;17.172;2022-07-29T05:28:14;4.80;;;2.35;;
17586;SDS011;8912;52.336;17.172;2022-07-29T05:30:43;3.85;;;2.22;;
17586;SDS011;8912;52.336;17.172;2022-07-29T05:33:12;8.20;;;2.85;;
17586;SDS011;8912;52.336;17.172;2022-07-29T05:36:03;4.55;;;2.25;;
17586;SDS011;8912;52.336;17.172;2022-07-29T05:38:34;4.93;;;2.28;;
17586;SDS011;8912;52.336;17.172;2022-07-29T05:41:04;7.65;;;3.00;;
17586;SDS011;8912;52.336;17.172;2022-07-29T05:43:33;4.47;;;2.63;;
17586;SDS011;8912;52.336;17.172;2022-07-29T05:46:02;8.98;;;2.55;;
17586;SDS011;8912;52.336;17.172;2022-07-29T05:48:31;4.28;;;2.20;;
17586;SDS011;8912;52.336;17.172;2022-07-29T05:51:00;5.90;;;2.50;;
17586;SDS011;8912;52.336;17.172;2022-07-29T05:53:31;8.27;;;2.33;;
17586;SDS011;8912;52.336;17.172;2022-07-29T05:56:02;4.88;;;2.13;;
17586;SDS011;8912;52.336;17.172;2022-07-29T05:58:32;3.28;;;2.03;;
17586;SDS011;8912;52.336;17.172;2022-07-29T06:01:01;3.10;;;2.00;;
17586;SDS011;8912;52.336;17.172;2022-07-29T06:03:30;2.10;;;1.90;;
17586;SDS011;8912;52.336;17.172;2022-07-29T06:05:59;3.88;;;1.70;;
17586;SDS011;8912;52.336;17.172;2022-07-29T06:08:29;7.32;;;1.60;;
17586;SDS011;8912;52.336;17.172;2022-07-29T06:10:58;5.22;;;2.05;;
17586;SDS011;8912;52.336;17.172;2022-07-29T06:13:26;5.28;;;1.98;;
17586;SDS011;8912;52.336;17.172;2022-07-29T06:15:55;4.60;;;1.80;;
17586;SDS011;8912;52.336;17.172;2022-07-29T06:18:25;3.53;;;1.95;;
17586;SDS011;8912;52.336;17.172;2022-07-29T06:20:53;4.50;;;2.10;;
17586;SDS011;8912;52.336;17.172;2022-07-29T06:23:22;3.30;;;1.80;;
17586;SDS011;8912;52.336;17.172;2022-07-29T06:25:52;3.92;;;1.90;;
17586;SDS011;8912;52.336;17.172;2022-07-29T06:28:21;4.55;;;1.90;;
17586;SDS011;8912;52.336;17.172;2022-07-29T06:30:49;4.00;;;2.45;;
17586;SDS011;8912;52.336;17.172;2022-07-29T06:33:18;3.00;;;2.00;;
17586;SDS011;8912;52.336;17.172;2022-07-29T06:35:47;3.88;;;1.60;;
17586;SDS011;8912;52.336;17.172;2022-07-29T06:38:20;3.40;;;1.58;;
17586;SDS011;8912;52.336;17.172;2022-07-29T06:41:01;2.22;;;1.80;;
17586;SDS011;8912;52.336;17.172;2022-07-29T06:43:34;1.98;;;1.45;;
17586;SDS011;8912;52.336;17.172;2022-07-29T06:46:18;4.80;;;1.92;;
17586;SDS011;8912;52.336;17.172;2022-07-29T06:48:48;8.93;;;2.05;;
17586;SDS011;8912;52.336;17.172;2022-07-29T06:51:17;4.22;;;1.73;;
17586;SDS011;8912;52.336;17.172;2022-07-29T06:53:49;5.93;;;1.70;;
17586;SDS011;8912;52.336;17.172;2022-07-29T06:56:30;4.80;;;1.80;;
17586;SDS011;8912;52.336;17.172;2022-07-29T06:59:06;3.58;;;1.50;;
17586;SDS011;8912;52.336;17.172;2022-07-29T07:01:36;5.18;;;1.50;;
17586;SDS011;8912;52.336;17.172;2022-07-29T07:04:05;4.05;;;1.67;;
17586;SDS011;8912;52.336;17.172;2022-07-29T07:06:35;3.35;;;2.00;;
17586;SDS011;8912;52.336;17.172;2022-07-29T07:09:04;4.70;;;1.60;;
17586;SDS011;8912;52.336;17.172;2022-07-29T07:11:34;4.38;;;1.67;;
17586;SDS011;8912;52.336;17.172;2022-07-29T07:14:03;10.88;;;2.20;;
17586;SDS011;8912;52.336;17.172;2022-07-29T07:16:31;4.03;;;1.52;;
17586;SDS011;8912;52.336;17.172;2022-07-29T07:19:00;3.38;;;1.70;;
17586;SDS011;8912;52.336;17.172;2022-07-29T07:21:29;5.90;;;1.50;;
17586;SDS011;8912;52.336;17.172;2022-07-29T07:23:58;4.07;;;1.65;;
17586;SDS011;8912;52.336;17.172;2022-07-29T07:26:27;3.47;;;1.65;;
17586;SDS011;8912;52.336;17.172;2022-07-29T07:28:57;3.95;;;1.63;;
17586;SDS011;8912;52.336;17.172;2022-07-29T07:31:27;4.88;;;1.58;;
17586;SDS011;8912;52.336;17.172;2022-07-29T07:33:56;6.88;;;1.52;;
17586;SDS011;8912;52.336;17.172;2022-07-29T07:36:25;8.90;;;1.88;;
17586;SDS011;8912;52.336;17.172;2022-07-29T07:38:53;15.27;;;2.17;;
17586;SDS011;8912;52.336;17.172;2022-07-29T07:41:22;5.28;;;1.60;;
17586;SDS011;8912;52.336;17.172;2022-07-29T07:43:51;4.03;;;1.73;;
17586;SDS011;8912;52.336;17.172;2022-07-29T07:46:21;5.07;;;1.50;;
17586;SDS011;8912;52.336;17.172;2022-07-29T07:48:50;2.08;;;1.52;;
17586;SDS011;8912;52.336;17.172;2022-07-29T07:51:19;9.85;;;1.70;;
17586;SDS011;8912;52.336;17.172;2022-07-29T07:53:48;3.55;;;1.60;;
17586;SDS011;8912;52.336;17.172;2022-07-29T07:56:17;7.30;;;1.60;;
17586;SDS011;8912;52.336;17.172;2022-07-29T07:58:45;4.43;;;1.60;;
17586;SDS011;8912;52.336;17.172;2022-07-29T08:01:14;1.35;;;1.25;;
17586;SDS011;8912;52.336;17.172;2022-07-29T08:03:47;3.22;;;1.50;;
17586;SDS011;8912;52.336;17.172;2022-07-29T08:06:15;3.78;;;1.50;;
17586;SDS011;8912;52.336;17.172;2022-07-29T08:08:44;3.17;;;1.20;;
17586;SDS011;8912;52.336;17.172;2022-07-29T08:11:13;3.65;;;1.58;;
17586;SDS011;8912;52.336;17.172;2022-07-29T08:13:41;5.78;;;1.60;;
17586;SDS011;8912;52.336;17.172;2022-07-29T08:16:10;24.80;;;3.05;;
17586;SDS011;8912;52.336;17.172;2022-07-29T08:18:40;5.82;;;1.77;;
17586;SDS011;8912;52.336;17.172;2022-07-29T08:21:12;4.55;;;1.60;;
17586;SDS011;8912;52.336;17.172;2022-07-29T08:23:42;1.38;;;1.27;;
17586;SDS011;8912;52.336;17.172;2022-07-29T08:26:26;9.63;;;1.60;;
17586;SDS011;8912;52.336;17.172;2022-07-29T08:28:55;8.00;;;1.65;;
17586;SDS011;8912;52.336;17.172;2022-07-29T08:31:24;18.98;;;2.38;;
17586;SDS011;8912;52.336;17.172;2022-07-29T08:33:53;2.90;;;1.50;;
17586;SDS011;8912;52.336;17.172;2022-07-29T08:36:24;3.38;;;1.48;;
17586;SDS011;8912;52.336;17.172;2022-07-29T08:38:54;3.10;;;1.20;;
17586;SDS011;8912;52.336;17.172;2022-07-29T08:41:23;4.80;;;1.40;;
17586;SDS011;8912;52.336;17.172;2022-07-29T08:43:52;6.13;;;1.50;;
17586;SDS011;8912;52.336;17.172;2022-07-29T08:46:21;4.57;;;1.63;;
17586;SDS011;8912;52.336;17.172;2022-07-29T08:48:50;12.60;;;2.85;;
17586;SDS011;8912;52.336;17.172;2022-07-29T08:51:19;6.88;;;1.45;;
17586;SDS011;8912;52.336;17.172;2022-07-29T08:53:50;4.88;;;1.45;;
17586;SDS011;8912;52.336;17.172;2022-07-29T08:56:19;20.90;;;3.72;;
17586;SDS011;8912;52.336;17.172;2022-07-29T08:58:48;3.08;;;1.42;;
17586;SDS011;8912;52.336;17.172;2022-07-29T09:01:22;4.03;;;1.50;;
17586;SDS011;8912;52.336;17.172;2022-07-29T09:04:10;5.72;;;1.30;;
17586;SDS011;8912;52.336;17.172;2022-07-29T09:06:43;5.00;;;1.50;;
17586;SDS011;8912;52.336;17.172;2022-07-29T09:09:14;3.30;;;1.67;;
17586;SDS011;8912;52.336;17.172;2022-07-29T09:11:43;5.80;;;1.70;;
17586;SDS011;8912;52.336;17.172;2022-07-29T09:14:12;3.67;;;1.40;;
17586;SDS011;8912;52.336;17.172;2022-07-29T09:16:48;6.35;;;1.65;;
17586;SDS011;8912;52.336;17.172;2022-07-29T09:19:21;3.78;;;1.55;;
17586;SDS011;8912;52.336;17.172;2022-07-29T09:21:55;7.70;;;1.40;;
17586;SDS011;8912;52.336;17.172;2022-07-29T09:24:51;5.38;;;1.38;;
17586;SDS011;8912;52.336;17.172;2022-07-29T09:27:22;6.68;;;1.60;;
17586;SDS011;8912;52.336;17.172;2022-07-29T09:29:56;4.72;;;1.58;;
17586;SDS011;8912;52.336;17.172;2022-07-29T09:32:26;2.47;;;1.23;;
17586;SDS011;8912;52.336;17.172;2022-07-29T09:37:48;2.53;;;1.50;;
17586;SDS011;8912;52.336;17.172;2022-07-29T09:40:19;3.80;;;1.52;;
17586;SDS011;8912;52.336;17.172;2022-07-29T09:42:49;6.57;;;1.90;;
17586;SDS011;8912;52.336;17.172;2022-07-29T09:45:26;6.60;;;1.52;;
17586;SDS011;8912;52.336;17.172;2022-07-29T09:47:57;9.48;;;2.28;;
17586;SDS011;8912;52.336;17.172;2022-07-29T09:50:36;15.98;;;2.20;;
17586;SDS011;8912;52.336;17.172;2022-07-29T09:53:07;5.53;;;1.20;;
17586;SDS011;8912;52.336;17.172;2022-07-29T09:58:22;14.27;;;2.55;;
17586;SDS011;8912;52.336;17.172;2022-07-29T10:00:51;5.65;;;1.90;;
17586;SDS011;8912;52.336;17.172;2022-07-29T10:03:22;6.95;;;1.65;;
17586;SDS011;8912;52.336;17.172;2022-07-29T10:06:04;5.15;;;1.33;;
17586;SDS011;8912;52.336;17.172;2022-07-29T10:08:34;1.52;;;1.20;;
17586;SDS011;8912;52.336;17.172;2022-07-29T10:11:09;6.70;;;1.35;;
17586;SDS011;8912;52.336;17.172;2022-07-29T10:13:40;5.03;;;1.80;;
17586;SDS011;8912;52.336;17.172;2022-07-29T10:16:10;4.20;;;1.63;;
17586;SDS011;8912;52.336;17.172;2022-07-29T10:18:40;4.28;;;1.10;;
17586;SDS011;8912;52.336;17.172;2022-07-29T10:21:09;5.35;;;1.58;;
17586;SDS011;8912;52.336;17.172;2022-07-29T10:23:58;4.68;;;1.30;;
17586;SDS011;8912;52.336;17.172;2022-07-29T10:26:29;13.82;;;1.90;;
17586;SDS011;8912;52.336;17.172;2022-07-29T10:28:58;3.10;;;1.35;;
17586;SDS011;8912;52.336;17.172;2022-07-29T10:31:28;4.05;;;2.03;;
17586;SDS011;8912;52.336;17.172;2022-07-29T10:34:06;6.45;;;1.83;;
17586;SDS011;8912;52.336;17.172;2022-07-29T10:36:47;5.55;;;1.40;;
17586;SDS011;8912;52.336;17.172;2022-07-29T10:39:27;4.50;;;1.50;;
17586;SDS011;8912;52.336;17.172;2022-07-29T10:42:18;13.80;;;2.70;;
17586;SDS011;8912;52.336;17.172;2022-07-29T10:45:00;2.58;;;1.45;;
17586;SDS011;8912;52.336;17.172;2022-07-29T10:47:30;8.73;;;1.40;;
17586;SDS011;8912;52.336;17.172;2022-07-29T10:50:02;6.88;;;1.92;;
17586;SDS011;8912;52.336;17.172;2022-07-29T10:55:32;10.27;;;2.22;;
17586;SDS011;8912;52.336;17.172;2022-07-29T10:58:18;5.00;;;1.65;;
17586;SDS011;8912;52.336;17.172;2022-07-29T11:00:48;31.20;;;5.45;;
17586;SDS011;8912;52.336;17.172;2022-07-29T11:06:16;4.88;;;1.83;;
17586;SDS011;8912;52.336;17.172;2022-07-29T11:12:13;37.25;;;7.43;;
17586;SDS011;8912;52.336;17.172;2022-07-29T11:15:15;3.90;;;1.35;;
17586;SDS011;8912;52.336;17.172;2022-07-29T11:18:03;6.40;;;1.80;;
17586;SDS011;8912;52.336;17.172;2022-07-29T11:20:43;1.88;;;1.40;;
17586;SDS011;8912;52.336;17.172;2022-07-29T11:23:25;5.53;;;1.40;;
17586;SDS011;8912;52.336;17.172;2022-07-29T11:26:13;3.33;;;1.58;;
17586;SDS011;8912;52.336;17.172;2022-07-29T11:28:54;2.78;;;1.30;;
17586;SDS011;8912;52.336;17.172;2022-07-29T11:31:34;4.80;;;1.65;;
17586;SDS011;8912;52.336;17.172;2022-07-29T11:34:18;27.20;;;4.57;;
17586;SDS011;8912;52.336;17.172;2022-07-29T11:39:44;3.55;;;1.60;;
17586;SDS011;8912;52.336;17.172;2022-07-29T11:45:10;5.82;;;1.65;;
17586;SDS011;8912;52.336;17.172;2022-07-29T11:48:02;1.60;;;1.40;;
17586;SDS011;8912;52.336;17.172;2022-07-29T11:50:52;3.65;;;1.50;;
17586;SDS011;8912;52.336;17.172;2022-07-29T11:53:24;5.53;;;1.45;;
17586;SDS011;8912;52.336;17.172;2022-07-29T11:55:59;9.35;;;1.70;;
17586;SDS011;8912;52.336;17.172;2022-07-29T11:58:30;3.63;;;1.40;;
17586;SDS011;8912;52.336;17.172;2022-07-29T12:00:59;6.00;;;1.40;;
17586;SDS011;8912;52.336;17.172;2022-07-29T12:03:32;4.40;;;1.50;;
17586;SDS011;8912;52.336;17.172;2022-07-29T12:06:03;4.65;;;1.60;;
17586;SDS011;8912;52.336;17.172;2022-07-29T12:08:44;4.50;;;1.90;;
17586;SDS011;8912;52.336;17.172;2022-07-29T12:11:16;5.38;;;1.75;;
17586;SDS011;8912;52.336;17.172;2022-07-29T12:13:47;5.88;;;1.92;;
17586;SDS011;8912;52.336;17.172;2022-07-29T12:16:16;22.00;;;4.30;;
17586;SDS011;8912;52.336;17.172;2022-07-29T12:18:57;2.63;;;1.77;;
17586;SDS011;8912;52.336;17.172;2022-07-29T12:21:28;2.95;;;1.33;;
17586;SDS011;8912;52.336;17.172;2022-07-29T12:23:57;4.13;;;1.50;;
17586;SDS011;8912;52.336;17.172;2022-07-29T12:26:35;7.38;;;2.20;;
17586;SDS011;8912;52.336;17.172;2022-07-29T12:29:06;3.80;;;1.85;;
17586;SDS011;8912;52.336;17.172;2022-07-29T12:32:00;5.13;;;1.80;;
17586;SDS011;8912;52.336;17.172;2022-07-29T12:34:31;3.03;;;1.65;;
17586;SDS011;8912;52.336;17.172;2022-07-29T12:37:01;46.90;;;5.05;;
17586;SDS011;8912;52.336;17.172;2022-07-29T12:39:32;2.97;;;1.35;;
17586;SDS011;8912;52.336;17.172;2022-07-29T12:42:09;4.35;;;1.50;;
17586;SDS011;8912;52.336;17.172;2022-07-29T12:44:47;5.47;;;1.52;;
17586;SDS011;8912;52.336;17.172;2022-07-29T12:47:17;10.35;;;2.92;;
17586;SDS011;8912;52.336;17.172;2022-07-29T12:49:48;4.47;;;1.50;;
17586;SDS011;8912;52.336;17.172;2022-07-29T12:52:25;2.38;;;1.70;;
17586;SDS011;8912;52.336;17.172;2022-07-29T12:54:55;4.40;;;1.50;;
17586;SDS011;8912;52.336;17.172;2022-07-29T12:57:24;7.43;;;1.83;;
17586;SDS011;8912;52.336;17.172;2022-07-29T13:00:00;3.45;;;1.60;;
17586;SDS011;8912;52.336;17.172;2022-07-29T13:02:34;5.47;;;1.88;;
17586;SDS011;8912;52.336;17.172;2022-07-29T13:05:05;3.88;;;1.50;;
17586;SDS011;8912;52.336;17.172;2022-07-29T13:07:35;7.18;;;1.75;;
17586;SDS011;8912;52.336;17.172;2022-07-29T13:10:23;6.38;;;1.35;;
17586;SDS011;8912;52.336;17.172;2022-07-29T13:13:02;4.15;;;1.42;;
17586;SDS011;8912;52.336;17.172;2022-07-29T13:15:32;5.70;;;1.60;;
17586;SDS011;8912;52.336;17.172;2022-07-29T13:18:02;5.03;;;1.50;;
17586;SDS011;8912;52.336;17.172;2022-07-29T13:20:33;3.28;;;1.40;;
17586;SDS011;8912;52.336;17.172;2022-07-29T13:23:02;5.80;;;1.52;;
17586;SDS011;8912;52.336;17.172;2022-07-29T13:25:31;4.32;;;1.67;;
17586;SDS011;8912;52.336;17.172;2022-07-29T13:28:01;3.20;;;1.20;;
17586;SDS011;8912;52.336;17.172;2022-07-29T13:30:29;10.88;;;2.55;;
17586;SDS011;8912;52.336;17.172;2022-07-29T13:32:58;7.38;;;2.00;;
17586;SDS011;8912;52.336;17.172;2022-07-29T13:35:27;1.65;;;1.50;;
17586;SDS011;8912;52.336;17.172;2022-07-29T13:37:57;4.07;;;1.52;;
17586;SDS011;8912;52.336;17.172;2022-07-29T13:40:26;6.50;;;1.42;;
17586;SDS011;8912;52.336;17.172;2022-07-29T13:42:55;1.98;;;1.23;;
17586;SDS011;8912;52.336;17.172;2022-07-29T13:45:24;4.28;;;1.77;;
17586;SDS011;8912;52.336;17.172;2022-07-29T13:47:55;2.25;;;1.30;;
17586;SDS011;8912;52.336;17.172;2022-07-29T13:50:23;4.35;;;1.40;;
17586;SDS011;8912;52.336;17.172;2022-07-29T13:52:52;5.35;;;1.33;;
17586;SDS011;8912;52.336;17.172;2022-07-29T13:55:22;3.72;;;1.42;;
17586;SDS011;8912;52.336;17.172;2022-07-29T13:57:51;9.73;;;1.85;;
17586;SDS011;8912;52.336;17.172;2022-07-29T14:00:19;5.53;;;1.45;;
17586;SDS011;8912;52.336;17.172;2022-07-29T14:02:50;1.45;;;1.23;;
17586;SDS011;8912;52.336;17.172;2022-07-29T14:05:19;4.32;;;1.50;;
17586;SDS011;8912;52.336;17.172;2022-07-29T14:07:47;2.22;;;1.40;;
17586;SDS011;8912;52.336;17.172;2022-07-29T14:10:16;3.00;;;1.45;;
17586;SDS011;8912;52.336;17.172;2022-07-29T14:12:47;1.65;;;1.30;;
17586;SDS011;8912;52.336;17.172;2022-07-29T14:15:16;2.95;;;1.48;;
17586;SDS011;8912;52.336;17.172;2022-07-29T14:17:45;2.22;;;1.63;;
17586;SDS011;8912;52.336;17.172;2022-07-29T14:20:13;1.55;;;1.27;;
17586;SDS011;8912;52.336;17.172;2022-07-29T14:22:43;6.40;;;1.60;;
17586;SDS011;8912;52.336;17.172;2022-07-29T14:25:11;6.20;;;2.13;;
17586;SDS011;8912;52.336;17.172;2022-07-29T14:27:41;4.53;;;1.35;;
17586;SDS011;8912;52.336;17.172;2022-07-29T14:30:12;2.95;;;1.30;;
17586;SDS011;8912;52.336;17.172;2022-07-29T14:32:43;3.47;;;1.40;;
17586;SDS011;8912;52.336;17.172;2022-07-29T14:35:11;2.30;;;1.30;;
17586;SDS011;8912;52.336;17.172;2022-07-29T14:37:40;8.48;;;1.67;;
17586;SDS011;8912;52.336;17.172;2022-07-29T14:40:09;6.40;;;1.95;;
17586;SDS011;8912;52.336;17.172;2022-07-29T14:42:38;5.35;;;1.67;;
17586;SDS011;8912;52.336;17.172;2022-07-29T14:45:08;4.03;;;1.40;;
17586;SDS011;8912;52.336;17.172;2022-07-29T14:47:38;2.53;;;1.30;;
17586;SDS011;8912;52.336;17.172;2022-07-29T14:50:07;4.30;;;1.48;;
17586;SDS011;8912;52.336;17.172;2022-07-29T14:52:37;2.40;;;1.30;;
17586;SDS011;8912;52.336;17.172;2022-07-29T14:55:06;3.78;;;1.50;;
17586;SDS011;8912;52.336;17.172;2022-07-29T14:57:45;2.53;;;1.38;;
17586;SDS011;8912;52.336;17.172;2022-07-29T15:00:14;1.45;;;1.10;;
17586;SDS011;8912;52.336;17.172;2022-07-29T15:02:45;2.10;;;1.38;;
17586;SDS011;8912;52.336;17.172;2022-07-29T15:05:29;2.92;;;1.42;;
17586;SDS011;8912;52.336;17.172;2022-07-29T15:07:58;2.17;;;1.33;;
17586;SDS011;8912;52.336;17.172;2022-07-29T15:10:27;5.22;;;1.45;;
17586;SDS011;8912;52.336;17.172;2022-07-29T15:12:56;2.70;;;1.33;;
17586;SDS011;8912;52.336;17.172;2022-07-29T15:15:25;3.47;;;1.33;;
17586;SDS011;8912;52.336;17.172;2022-07-29T15:17:55;6.88;;;1.88;;
17586;SDS011;8912;52.336;17.172;2022-07-29T15:20:24;5.97;;;1.30;;
17586;SDS011;8912;52.336;17.172;2022-07-29T15:22:54;1.75;;;1.23;;
17586;SDS011;8912;52.336;17.172;2022-07-29T15:25:23;5.63;;;1.38;;
17586;SDS011;8912;52.336;17.172;2022-07-29T15:27:54;4.60;;;1.27;;
17586;SDS011;8912;52.336;17.172;2022-07-29T15:30:27;7.25;;;1.65;;
17586;SDS011;8912;52.336;17.172;2022-07-29T15:33:02;2.50;;;1.20;;
17586;SDS011;8912;52.336;17.172;2022-07-29T15:35:30;1.80;;;1.20;;